Links Sitemap Venhuizerweer voor mobiel

AMSTERDAM SCHIPHOL:
Amsterdam Airport Schiphol, Netherlands (EHAM) 52-18N 004-46E -2M
Nov 28, 2020 - 01:55 AM EST / 2020.11.28 0655 UTC
Wind: from the E (100 degrees) at 6 MPH (5 KT):0
Visibility: 3 mile(s):0
Sky conditions: mostly clear
Temperature: 41 F (5 C)
Dew Point: 39 F (4 C)
Relative Humidity: 93%
Pressure (altimeter): 30.09 in. Hg (1019 hPa)
ob: EHAM 280655Z 10005KT 6000 FEW006 05/04 Q1019 NOSIG
cycle: 7
DEELEN:
Deelen, Netherlands (EHDL) 52-04N 005-53E 52M
Nov 28, 2020 - 01:55 AM EST / 2020.11.28 0655 UTC
Wind: from the ESE (110 degrees) at 6 MPH (5 KT) (direction variable):0
Visibility: 2 mile(s):0
Sky conditions: overcast
Weather: mist
Temperature: 35 F (2 C)
Windchill: 30 F (-1 C):1
Dew Point: 35 F (2 C)
Relative Humidity: 100%
Pressure (altimeter): 30.12 in. Hg (1020 hPa)
ob: EHDL 280655Z AUTO 11005KT 040V200 3400 BR BKN001 BKN002 OVC091 02/02 Q1020 RED RMK TS INFO NOT AVBL
cycle: 7
DE KOOY:
De Kooy, Netherlands (EHKD) 52-55N 004-47E 14M
Nov 28, 2020 - 01:55 AM EST / 2020.11.28 0655 UTC
Wind: from the E (080 degrees) at 13 MPH (11 KT):0
Visibility: 3 mile(s):0
Sky conditions: overcast
Weather: mist
Temperature: 42 F (6 C)
Dew Point: 39 F (4 C)
Relative Humidity: 86%
Pressure (altimeter): 30.12 in. Hg (1020 hPa)
ob: EHKD 280655Z AUTO 08011KT 5000 BR BKN005 OVC093 06/04 Q1020 YLO TEMPO 3000 BKN005 RMK TS INFO NOT AVBL
cycle: 7
EELDE:
Groningen Airport Eelde, Netherlands (EHGG) 53-08N 006-35E 4M
Nov 28, 2020 - 01:55 AM EST / 2020.11.28 0655 UTC
Wind: from the E (100 degrees) at 9 MPH (8 KT) (direction variable):0
Visibility: 1 mile(s):0
Sky conditions: overcast
Weather: mist
Temperature: 41 F (5 C)
Dew Point: 41 F (5 C)
Relative Humidity: 100%
Pressure (altimeter): 30.15 in. Hg (1021 hPa)
ob: EHGG 280655Z AUTO 10008KT 080V140 2100 BR OVC002 05/05 Q1021 NOSIG
cycle: 7
EINDHOVEN:
Eindhoven, Netherlands (EHEH) 51-27N 005-25E 28M
Nov 28, 2020 - 01:55 AM EST / 2020.11.28 0655 UTC
Wind: from the ENE (070 degrees) at 5 MPH (4 KT):0
Visibility: 4 mile(s):0
Sky conditions: overcast
Weather: mist
Temperature: 39 F (4 C)
Dew Point: 37 F (3 C)
Relative Humidity: 93%
Pressure (altimeter): 30.09 in. Hg (1019 hPa)
ob: EHEH 280655Z AUTO 07004KT 7000 BR OVC092 04/03 Q1019 WHT TEMPO 3000 BR MIFG BKN002
cycle: 7
GILZE-RIJEN:
Gilze-Rijen, Netherlands (EHGR) 51-34N 004-56E 24M
Nov 28, 2020 - 01:55 AM EST / 2020.11.28 0655 UTC
Wind: from the E (090 degrees) at 6 MPH (5 KT) (direction variable):0
Visibility: 2 mile(s):0
Sky conditions: mostly cloudy
Weather: mist
Temperature: 39 F (4 C)
Dew Point: 37 F (3 C)
Relative Humidity: 93%
Pressure (altimeter): 30.09 in. Hg (1019 hPa)
ob: EHGR 280655Z AUTO 09005KT 050V120 4400 BR BKN093 04/03 Q1019 GRN
cycle: 7
LEEUWARDEN:
Leeuwarden, Netherlands (EHLW) 53-13N 005-46E 11M
Nov 28, 2020 - 01:55 AM EST / 2020.11.28 0655 UTC
Wind: from the E (090 degrees) at 8 MPH (7 KT) (direction variable):0
Visibility: less than 1 mile:0
Sky conditions: overcast
Weather: mist
Temperature: 39 F (4 C)
Dew Point: 39 F (4 C)
Relative Humidity: 100%
Pressure (altimeter): 30.15 in. Hg (1021 hPa)
ob: EHLW 280655Z AUTO 09007KT 030V160 1400 BR OVC001 04/04 Q1021 RED RMK TS INFO NOT AVBL
cycle: 7
MAASTRICHT:
Maastricht Airport Zuid Limburg, Netherlands (EHBK) 50-55N 005-47E 116M
Nov 28, 2020 - 01:55 AM EST / 2020.11.28 0655 UTC
Wind: Variable at 2 MPH (2 KT):0
Visibility: 4 mile(s):0
Temperature: 39 F (4 C)
Dew Point: 37 F (3 C)
Relative Humidity: 93%
Pressure (altimeter): 30.06 in. Hg (1018 hPa)
ob: EHBK 280655Z AUTO VRB02KT 7000 NSC 04/03 Q1018 TEMPO 8000
cycle: 7
ROTTERDAM ZESTIENHOVEN:
Rotterdam Airport Zestienhoven, Netherlands (EHRD) 51-57N 004-27E -4M
Nov 28, 2020 - 01:55 AM EST / 2020.11.28 0655 UTC
Wind: from the E (080 degrees) at 7 MPH (6 KT):0
Visibility: 3 mile(s):0
Sky conditions: mostly cloudy
Weather: mist
Temperature: 41 F (5 C)
Dew Point: 39 F (4 C)
Relative Humidity: 93%
Pressure (altimeter): 30.09 in. Hg (1019 hPa)
ob: EHRD 280655Z AUTO 08006KT 5000 BR SCT004 BKN005 05/04 Q1019 TEMPO 4000 SCT005
cycle: 7
SOESTERBERG:
Soesterberg, Netherlands (EHSB) 52-08N 005-17E 25M
Nov 20, 2008 - 04:25 AM EST / 2008.11.20 0925 UTC
Wind: from the W (280 degrees) at 16 MPH (14 KT):0
Visibility: greater than 7 mile(s):0
Temperature: 51 F (11 C)
Dew Point: 48 F (9 C)
Relative Humidity: 87%
Pressure (altimeter): 29.83 in. Hg (1010 hPa)
ob: EHSB 200925Z AUTO 28014KT 9999 // 11/09 Q1010
cycle: 9
TWENTE:
Twenthe, Netherlands (EHTW) 52-16N 006-54E 57M
Apr 07, 2008 - 08:25 AM EDT / 2008.04.07 1225 UTC
Wind: from the N (010 degrees) at 7 MPH (6 KT):0
Sky conditions: mostly cloudy
Temperature: 46 F (8 C)
Dew Point: 24 F (-4 C)
Relative Humidity: 42%
Pressure (altimeter): 29.59 in. Hg (1002 hPa)
ob: EHTW 071225Z AUTO 01006KT //// // BKN200/// 08/M04 Q1002 RE//
cycle: 12
VALKENBURG:
Valkenburg, Netherlands (EHVB) 52-11N 004-25E 2M
Apr 01, 2010 - 03:55 AM EDT / 2010.04.01 0755 UTC
Wind: from the WSW (250 degrees) at 20 MPH (17 KT):0
Sky conditions: mostly cloudy
Temperature: 41 F (5 C)
Dew Point: 33 F (1 C)
Relative Humidity: 75%
Pressure (altimeter): 29.62 in. Hg (1003 hPa)
ob: EHVB 010755Z AUTO 25017KT 9999NDV FEW021/// BKN037/// 05/01 Q1003 BLU
cycle: 8
VLIELAND:
Vlieland, Netherlands (EHVL) 53-15N 004-55E 12M
Nov 28, 2020 - 01:55 AM EST / 2020.11.28 0655 UTC
Wind: from the E (090 degrees) at 13 MPH (11 KT):0
Visibility: 1 mile(s):0
Sky conditions: overcast
Weather: mist
Temperature: 41 F (5 C)
Dew Point: 41 F (5 C)
Relative Humidity: 100%
Pressure (altimeter): 30.15 in. Hg (1021 hPa)
ob: EHVL 280655Z AUTO 09011KT 2400 BR BKN002 OVC003 05/05 Q1021 AMB RMK TS INFO NOT AVBL
cycle: 7
VOLKEL:
Volkel, Netherlands (EHVK) 51-39N 005-42E 21M
Nov 28, 2020 - 01:55 AM EST / 2020.11.28 0655 UTC
Wind: from the E (080 degrees) at 7 MPH (6 KT):0
Visibility: 4 mile(s):0
Sky conditions: overcast
Weather: mist
Temperature: 39 F (4 C)
Dew Point: 35 F (2 C)
Relative Humidity: 86%
Pressure (altimeter): 30.09 in. Hg (1019 hPa)
ob: EHVK 280655Z AUTO 08006KT 8000 BR OVC091 04/02 Q1019 BLU RMK TS INFO NOT AVBL
cycle: 7
WOENSDRECHT:
Woensdrecht, Netherlands (EHWO) 51-27N 004-20E 17M
Nov 28, 2020 - 01:55 AM EST / 2020.11.28 0655 UTC
Wind: from the E (080 degrees) at 5 MPH (4 KT):0
Visibility: less than 1 mile:0
Weather: mist
Temperature: 35 F (2 C)
Windchill: 30 F (-1 C):1
Dew Point: 33 F (1 C)
Relative Humidity: 93%
Pressure (altimeter): 30.06 in. Hg (1018 hPa)
ob: EHWO 280655Z AUTO 08004KT 1500 BR NCD 02/01 Q1018 AMB RMK TS INFO NOT AVBL
cycle: 7
Copyright © 2005 - 2020 Venhuizerweer - Alle Rechten Voorbehouden


3.237.66.86